YSH weather

Smiths Falls-Montague (Russ Beach) Airport
Smiths Falls, Ontario, Canada

Public forecast

Using degrees Celsius for public forecast. Weather courtesy of forecast.io.

Closest aviation weather report (METAR) to Smiths Falls-Montague (Russ Beach) Airport

Closest report is Ottawa Macdonald-Cartier International Airport, 25.4 nm (47.0 km) NNE. Retrieved 2019/11/14 20:00 UTC (20 minutes ago):

CYOW 142000Z 16010KT 6SM -SN OVC015 M02/M05 A3011 RMK SC8 SLP206

Closest aviation forecast (TAF) to Smiths Falls-Montague (Russ Beach) Airport

Closest forecast is Ottawa Macdonald-Cartier International Airport, 25.4 nm (47.0 km) NNE. Retrieved 2019/11/14 21:42 UTC (0 seconds ago):

TAF CYOW 142038Z 1421/1518 16010KT P6SM -SN SCT015 OVC025 TEMPO 1421/1501 3SM -SN OVC015 FM150100 22008KT P6SM SCT020 BKN040 TEMPO 1501/1510 BKN020 FM151000 23012KT 21/2SM -SHSN OVC020 FM151300 23015KT P6SM BKN025 BECMG 1513/1515 23015G25KT FM151700 25015G25KT 11/2SM -SHSN VV012 RMK NXT FCST BY 150000Z